Time;durP1;ratioP1;P1;durP2;ratioP2;P2;SDS_P1;SDS_P2;PMS_P1;PMS_P2;Temp;Humidity;BMP_temperature;BMP_pressure;BME280_temperature;BME280_humidity;BME280_pressure;Samples;Min_cycle;Max_cycle;Signal;HPM_P1;HPM_P2
2023/05/26 00:01:36;;;;;;;13.97;4.97;;;12.10;99.90;;;;;;5201899;28;20519;-47
2023/05/26 00:04:07;;;;;;;16.03;5.40;;;12.10;99.90;;;;;;5199664;28;20485;-45
2023/05/26 00:06:40;;;;;;;7.27;4.57;;;12.00;99.90;;;;;;5206441;28;20462;-46
2023/05/26 00:09:10;;;;;;;10.50;4.43;;;12.00;99.90;;;;;;5201515;28;20207;-46
2023/05/26 00:11:41;;;;;;;12.53;4.77;;;12.00;99.90;;;;;;5201219;28;20495;-45
2023/05/26 00:14:14;;;;;;;19.03;5.57;;;12.00;99.90;;;;;;5200961;28;20191;-46
2023/05/26 00:16:44;;;;;;;16.47;4.30;;;11.90;99.90;;;;;;5198680;28;20180;-46
2023/05/26 00:19:17;;;;;;;15.43;5.07;;;12.00;99.90;;;;;;5201337;28;20873;-46
2023/05/26 00:21:48;;;;;;;13.07;4.90;;;11.90;99.90;;;;;;5202226;28;20191;-46
2023/05/26 00:24:18;;;;;;;10.20;4.43;;;11.80;99.90;;;;;;5200671;28;20431;-46
2023/05/26 00:26:49;;;;;;;20.33;5.43;;;11.90;99.90;;;;;;5198967;28;20199;-47
2023/05/26 00:29:20;;;;;;;21.77;5.13;;;11.80;99.90;;;;;;5198677;28;20288;-46
2023/05/26 00:31:50;;;;;;;14.03;4.30;;;11.80;99.90;;;;;;5200949;28;20180;-47
2023/05/26 00:34:21;;;;;;;17.23;5.70;;;11.70;99.90;;;;;;5197687;28;20543;-47
2023/05/26 00:36:51;;;;;;;14.60;5.73;;;11.70;99.90;;;;;;5198465;28;20180;-46
2023/05/26 00:39:22;;;;;;;15.57;5.70;;;11.60;99.90;;;;;;5197982;28;20199;-47
2023/05/26 00:41:53;;;;;;;22.07;5.43;;;11.60;99.90;;;;;;5199350;28;20195;-47
2023/05/26 00:44:24;;;;;;;21.97;5.43;;;11.60;99.90;;;;;;5200772;28;20187;-46
2023/05/26 00:46:54;;;;;;;32.23;6.13;;;11.60;99.90;;;;;;5197367;28;20938;-46
2023/05/26 00:49:25;;;;;;;10.53;5.40;;;11.60;99.90;;;;;;5196442;28;20208;-46
2023/05/26 00:51:56;;;;;;;8.93;4.40;;;11.50;99.90;;;;;;5196610;28;20909;-48
2023/05/26 00:54:26;;;;;;;20.23;5.23;;;11.50;99.90;;;;;;5209518;28;20181;-45
2023/05/26 00:56:58;;;;;;;15.30;5.40;;;11.50;99.90;;;;;;5197859;28;20223;-47
2023/05/26 00:59:28;;;;;;;19.80;6.53;;;11.40;99.90;;;;;;5202515;28;20199;-46
2023/05/26 01:02:00;;;;;;;12.50;4.50;;;11.40;99.90;;;;;;5202944;28;20442;-48
2023/05/26 01:04:31;;;;;;;19.73;6.07;;;11.40;99.90;;;;;;5185689;28;20180;-46
2023/05/26 01:07:02;;;;;;;16.33;5.10;;;11.40;99.90;;;;;;5200989;28;20529;-48
2023/05/26 01:09:33;;;;;;;23.07;4.97;;;11.40;99.90;;;;;;5200765;28;20546;-46
2023/05/26 01:12:10;;;;;;;13.53;4.50;;;11.30;99.90;;;;;;5205305;28;22551;-47
2023/05/26 01:14:54;;;;;;;19.00;5.67;;;11.30;99.90;;;;;;5201565;28;20734;-46
2023/05/26 01:17:39;;;;;;;23.37;5.73;;;11.40;99.90;;;;;;5198701;28;20926;-46
2023/05/26 01:20:31;;;;;;;15.90;5.40;;;11.30;99.90;;;;;;5200396;28;20612;-46
2023/05/26 01:23:14;;;;;;;14.63;4.70;;;11.20;99.90;;;;;;5195936;28;20442;-46
2023/05/26 01:26:32;;;;;;;16.40;6.03;;;11.20;99.90;;;;;;5199510;28;20446;-48
2023/05/26 01:29:12;;;;;;;21.73;5.80;;;11.20;99.90;;;;;;5135687;28;20456;-47
2023/05/26 01:31:42;;;;;;;19.00;5.73;;;11.20;99.90;;;;;;5140991;28;20487;-46
2023/05/26 01:34:13;;;;;;;18.23;4.70;;;11.20;99.90;;;;;;5175772;28;20520;-47
2023/05/26 01:36:44;;;;;;;16.23;5.73;;;11.20;99.90;;;;;;5214244;28;20546;-46
2023/05/26 01:39:14;;;;;;;11.23;5.07;;;11.20;99.90;;;;;;5201577;28;20195;-47
2023/05/26 01:42:09;;;;;;;27.13;5.60;;;11.10;99.90;;;;;;5200218;28;20199;-45
2023/05/26 01:45:21;;;;;;;12.63;4.70;;;11.10;99.90;;;;;;5203033;28;20203;-47
2023/05/26 01:47:59;;;;;;;15.93;4.30;;;11.00;99.90;;;;;;5201985;28;20422;-46
2023/05/26 01:50:37;;;;;;;15.90;4.80;;;11.00;99.90;;;;;;5198607;28;20771;-46
2023/05/26 01:53:12;;;;;;;18.57;5.60;;;11.00;99.90;;;;;;5197372;28;20466;-46
2023/05/26 01:55:43;;;;;;;22.20;5.40;;;11.00;99.90;;;;;;5202836;28;20469;-46
2023/05/26 01:58:15;;;;;;;21.27;5.87;;;11.00;99.90;;;;;;5200597;28;20513;-48
2023/05/26 02:00:47;;;;;;;13.03;4.80;;;11.00;99.90;;;;;;5198438;28;20886;-46
2023/05/26 02:03:18;;;;;;;22.10;6.03;;;10.90;99.90;;;;;;5204528;28;20438;-47
2023/05/26 02:05:48;;;;;;;16.73;5.77;;;10.90;99.90;;;;;;5208195;28;20461;-46
2023/05/26 02:08:19;;;;;;;13.43;5.07;;;10.90;99.90;;;;;;5202512;28;20457;-46
2023/05/26 02:10:50;;;;;;;18.87;5.07;;;10.90;99.90;;;;;;5199006;28;20660;-46
2023/05/26 02:13:20;;;;;;;29.93;6.70;;;10.90;99.90;;;;;;5203317;28;20238;-46
2023/05/26 02:15:51;;;;;;;32.60;6.07;;;10.90;99.90;;;;;;5200353;28;20184;-46
2023/05/26 02:18:22;;;;;;;20.97;5.07;;;10.80;99.90;;;;;;5203527;28;20203;-46
2023/05/26 02:20:53;;;;;;;17.23;5.23;;;10.80;99.90;;;;;;5188039;28;20172;-46
2023/05/26 02:23:23;;;;;;;19.23;5.73;;;10.80;99.90;;;;;;5205334;28;20480;-46
2023/05/26 02:25:54;;;;;;;21.73;5.90;;;10.90;99.90;;;;;;5205093;28;20192;-47
2023/05/26 02:28:24;;;;;;;36.30;6.40;;;10.90;99.90;;;;;;5205583;28;20632;-45
2023/05/26 02:30:55;;;;;;;22.90;5.83;;;10.90;99.90;;;;;;5207228;28;20544;-46
2023/05/26 02:33:26;;;;;;;13.07;5.57;;;10.90;99.90;;;;;;5204374;28;20211;-48
2023/05/26 02:35:57;;;;;;;19.00;5.80;;;10.90;99.90;;;;;;5201050;28;20545;-47
2023/05/26 02:38:27;;;;;;;13.87;5.83;;;10.90;99.90;;;;;;5199595;28;20458;-46
2023/05/26 02:40:58;;;;;;;20.43;5.63;;;10.90;99.90;;;;;;5204058;28;20187;-48
2023/05/26 02:43:29;;;;;;;22.27;6.63;;;10.80;99.90;;;;;;5200067;28;20553;-47
2023/05/26 02:45:59;;;;;;;20.50;6.53;;;10.80;99.90;;;;;;5204298;28;20219;-47
2023/05/26 02:48:30;;;;;;;19.00;6.50;;;10.80;99.90;;;;;;5201293;28;20214;-45
2023/05/26 02:51:01;;;;;;;13.93;5.87;;;10.70;99.90;;;;;;5207209;28;20186;-47
2023/05/26 02:53:32;;;;;;;28.43;5.87;;;10.70;99.90;;;;;;5199206;28;20199;-45
2023/05/26 02:56:03;;;;;;;15.87;5.83;;;10.70;99.90;;;;;;5205419;28;20267;-47
2023/05/26 02:58:34;;;;;;;22.80;6.43;;;10.60;99.90;;;;;;5203331;28;20522;-46
2023/05/26 03:01:05;;;;;;;15.70;5.73;;;10.60;99.90;;;;;;5200249;28;20192;-47
2023/05/26 03:03:36;;;;;;;18.13;7.13;;;10.60;99.90;;;;;;5207264;28;20271;-46
2023/05/26 03:06:07;;;;;;;24.27;7.10;;;10.60;99.90;;;;;;5203675;28;20558;-46
2023/05/26 03:08:37;;;;;;;18.17;6.03;;;10.50;99.90;;;;;;5201608;28;20551;-46
2023/05/26 03:11:08;;;;;;;15.57;6.30;;;10.60;99.90;;;;;;5198446;28;20504;-46
2023/05/26 03:13:39;;;;;;;15.97;6.10;;;10.50;99.90;;;;;;5200079;28;20226;-46
2023/05/26 03:16:11;;;;;;;19.90;7.37;;;10.60;99.90;;;;;;5202353;28;20207;-45
2023/05/26 03:18:42;;;;;;;14.20;5.63;;;10.60;99.90;;;;;;5201234;28;20262;-47
2023/05/26 03:21:13;;;;;;;22.57;5.93;;;10.60;99.90;;;;;;5206441;28;20569;-48
2023/05/26 03:23:44;;;;;;;32.20;6.43;;;10.60;99.90;;;;;;5201837;28;20188;-46
2023/05/26 03:26:14;;;;;;;45.60;19.20;;;10.60;99.90;;;;;;5214894;28;20206;-47
2023/05/26 03:28:45;;;;;;;16.20;5.50;;;10.70;99.90;;;;;;5199647;28;20223;-46
2023/05/26 03:31:15;;;;;;;20.37;6.70;;;10.60;99.90;;;;;;5194564;28;20441;-45
2023/05/26 03:33:46;;;;;;;12.13;5.50;;;10.70;99.90;;;;;;5197466;28;20250;-45
2023/05/26 03:36:17;;;;;;;11.10;4.90;;;10.70;99.90;;;;;;5196585;28;20278;-46
2023/05/26 03:38:48;;;;;;;34.20;6.63;;;10.70;99.90;;;;;;5198426;28;20203;-46
2023/05/26 03:41:19;;;;;;;17.40;5.50;;;10.70;99.90;;;;;;5201193;28;21005;-48
2023/05/26 03:43:49;;;;;;;17.63;6.40;;;10.70;99.90;;;;;;5200211;28;20191;-46
2023/05/26 03:46:20;;;;;;;16.47;4.90;;;10.80;99.90;;;;;;5204122;28;20211;-47
2023/05/26 03:48:51;;;;;;;27.70;7.03;;;10.80;99.90;;;;;;5200627;28;20207;-48
2023/05/26 03:51:22;;;;;;;26.93;6.23;;;10.90;99.90;;;;;;5214824;28;20656;-48
2023/05/26 03:53:52;;;;;;;19.53;5.57;;;10.90;99.90;;;;;;5202563;28;20237;-48
2023/05/26 03:56:23;;;;;;;21.97;6.10;;;11.00;99.90;;;;;;5202895;28;20211;-47
2023/05/26 03:58:53;;;;;;;18.20;6.50;;;11.10;99.90;;;;;;5196368;28;20196;-46
2023/05/26 04:01:25;;;;;;;16.07;6.37;;;11.10;99.90;;;;;;5198471;28;20229;-46
2023/05/26 04:03:55;;;;;;;12.67;5.23;;;11.10;99.90;;;;;;5196011;28;20936;-47
2023/05/26 04:06:27;;;;;;;27.23;6.70;;;11.10;99.90;;;;;;5202026;28;20514;-46
2023/05/26 04:09:00;;;;;;;25.70;7.70;;;11.20;99.90;;;;;;5201063;28;20706;-47
2023/05/26 04:11:31;;;;;;;24.30;6.10;;;11.30;99.90;;;;;;5194853;28;20536;-47
2023/05/26 04:14:02;;;;;;;20.73;6.20;;;11.20;99.90;;;;;;5199815;28;20533;-46
2023/05/26 04:16:33;;;;;;;17.13;6.17;;;11.10;99.90;;;;;;5198908;28;20928;-47
2023/05/26 04:19:04;;;;;;;22.40;6.67;;;11.00;99.90;;;;;;5202465;28;20215;-46
2023/05/26 04:21:36;;;;;;;18.27;6.67;;;11.10;99.90;;;;;;5203087;28;20930;-46
2023/05/26 04:24:07;;;;;;;32.70;7.30;;;11.10;99.90;;;;;;5201656;28;21795;-48
2023/05/26 04:26:37;;;;;;;24.50;6.00;;;11.10;99.90;;;;;;5200301;28;20954;-47
2023/05/26 04:29:10;;;;;;;15.00;5.60;;;11.20;99.90;;;;;;5198242;28;20227;-46
2023/05/26 04:31:42;;;;;;;34.57;7.20;;;11.40;99.90;;;;;;5192649;28;20450;-47
2023/05/26 04:34:12;;;;;;;11.63;5.70;;;11.40;99.90;;;;;;5194580;28;20254;-46
2023/05/26 04:36:44;;;;;;;27.47;6.20;;;11.50;99.90;;;;;;5204423;28;20434;-47
2023/05/26 04:39:17;;;;;;;17.10;5.87;;;11.60;99.90;;;;;;5202302;28;20214;-47
2023/05/26 04:41:48;;;;;;;20.27;5.17;;;11.70;99.90;;;;;;5202721;28;20447;-47
2023/05/26 04:44:18;;;;;;;14.90;5.40;;;11.80;99.90;;;;;;5202113;28;20442;-47
2023/05/26 04:46:49;;;;;;;24.57;5.67;;;12.00;99.90;;;;;;5203673;28;20215;-47
2023/05/26 04:49:23;;;;;;;19.30;5.60;;;12.10;99.90;;;;;;5203421;28;20203;-46
2023/05/26 04:51:56;;;;;;;26.10;6.00;;;12.50;99.90;;;;;;5202315;28;20345;-47
2023/05/26 04:54:26;;;;;;;31.77;5.90;;;13.10;99.90;;;;;;5204346;28;20435;-46
2023/05/26 04:56:57;;;;;;;15.27;5.53;;;13.70;99.90;;;;;;5202520;28;20442;-49
2023/05/26 04:59:29;;;;;;;23.20;5.80;;;13.90;99.90;;;;;;5203697;28;20249;-47
2023/05/26 05:02:00;;;;;;;18.50;5.30;;;14.20;99.90;;;;;;5203094;28;20686;-47
2023/05/26 05:04:30;;;;;;;15.27;4.67;;;14.40;99.90;;;;;;5199200;28;20554;-47
2023/05/26 05:07:01;;;;;;;23.40;6.00;;;14.60;99.90;;;;;;5204293;28;20175;-47
2023/05/26 05:09:32;;;;;;;22.03;6.50;;;14.80;99.90;;;;;;5205489;28;20204;-47
2023/05/26 05:12:03;;;;;;;21.27;5.73;;;15.40;99.90;;;;;;5204147;28;20209;-48
2023/05/26 05:14:34;;;;;;;23.00;5.37;;;16.20;99.90;;;;;;5204963;28;20171;-46
2023/05/26 05:17:04;;;;;;;25.33;5.50;;;16.40;99.70;;;;;;5206199;28;20518;-46
2023/05/26 05:19:35;;;;;;;15.90;5.20;;;16.90;97.90;;;;;;5203428;28;20207;-47
2023/05/26 05:22:06;;;;;;;21.77;5.50;;;17.20;95.50;;;;;;5203606;28;20640;-46
2023/05/26 05:24:36;;;;;;;25.00;5.73;;;18.30;91.70;;;;;;5205790;28;20665;-46
2023/05/26 05:27:07;;;;;;;15.20;4.87;;;18.60;85.70;;;;;;5203623;28;20267;-46
2023/05/26 05:29:37;;;;;;;13.80;5.30;;;19.00;80.00;;;;;;5185853;28;20200;-47
2023/05/26 05:32:08;;;;;;;13.70;6.27;;;20.20;72.30;;;;;;5204827;28;20405;-46
2023/05/26 05:34:39;;;;;;;10.80;4.10;;;20.80;66.60;;;;;;5203381;28;20326;-46
2023/05/26 05:37:10;;;;;;;11.87;4.27;;;22.00;60.80;;;;;;5201605;28;20788;-46
2023/05/26 05:39:40;;;;;;;24.20;5.47;;;22.60;56.80;;;;;;5200235;28;20455;-47
2023/05/26 05:42:11;;;;;;;12.93;4.97;;;22.70;54.90;;;;;;5203429;28;20524;-47
2023/05/26 05:44:42;;;;;;;12.13;4.23;;;23.40;52.30;;;;;;5201203;28;20203;-47
2023/05/26 05:47:12;;;;;;;16.60;4.33;;;24.40;50.70;;;;;;5203748;28;20194;-45
2023/05/26 05:49:44;;;;;;;16.90;5.50;;;25.00;47.50;;;;;;5200901;28;20199;-47
2023/05/26 05:52:14;;;;;;;18.03;4.43;;;25.40;45.80;;;;;;5202295;28;20263;-47
2023/05/26 05:54:45;;;;;;;8.00;3.80;;;26.30;45.00;;;;;;5203975;28;20561;-48
2023/05/26 05:57:15;;;;;;;17.17;4.53;;;27.20;42.50;;;;;;5196785;28;20175;-47
2023/05/26 05:59:46;;;;;;;7.87;3.73;;;26.90;40.90;;;;;;5201395;28;20671;-47
2023/05/26 06:02:17;;;;;;;18.33;4.50;;;27.70;41.10;;;;;;5202244;28;20241;-47
2023/05/26 06:04:47;;;;;;;26.83;5.60;;;28.30;38.60;;;;;;5199624;28;20234;-48
2023/05/26 06:07:18;;;;;;;16.43;3.90;;;29.00;37.70;;;;;;5202769;28;21569;-47
2023/05/26 06:09:48;;;;;;;8.47;4.03;;;27.90;37.70;;;;;;5202482;28;20214;-47
2023/05/26 06:12:19;;;;;;;13.20;4.60;;;27.20;38.80;;;;;;5200911;28;20249;-47
2023/05/26 06:14:50;;;;;;;13.63;4.20;;;27.80;39.20;;;;;;5199089;28;20601;-47
2023/05/26 06:17:21;;;;;;;12.67;4.13;;;27.70;37.90;;;;;;5199600;28;20188;-47
2023/05/26 06:19:51;;;;;;;12.50;4.20;;;28.20;38.10;;;;;;5202064;28;20239;-47
2023/05/26 06:22:22;;;;;;;14.13;5.50;;;28.60;37.20;;;;;;5198510;28;20563;-48
2023/05/26 06:24:52;;;;;;;9.77;4.57;;;29.40;36.20;;;;;;5201754;28;20527;-46
2023/05/26 06:27:23;;;;;;;15.57;5.50;;;30.40;34.40;;;;;;5196163;28;20238;-47
2023/05/26 06:29:54;;;;;;;19.03;5.20;;;31.10;33.70;;;;;;5191389;28;20215;-48
2023/05/26 06:32:24;;;;;;;15.00;4.53;;;31.20;32.10;;;;;;5184340;28;20214;-48
2023/05/26 06:34:55;;;;;;;16.60;4.20;;;31.20;32.40;;;;;;5183371;28;20278;-47
2023/05/26 06:37:26;;;;;;;15.33;5.03;;;31.30;32.00;;;;;;5192804;28;20226;-46
2023/05/26 06:39:57;;;;;;;14.57;4.77;;;31.00;31.70;;;;;;5196431;28;20670;-47
2023/05/26 06:42:27;;;;;;;14.07;4.20;;;30.60;32.50;;;;;;5186810;28;20199;-47
2023/05/26 06:44:58;;;;;;;15.10;4.10;;;31.00;32.20;;;;;;5195381;28;20504;-48
2023/05/26 06:47:29;;;;;;;14.07;3.97;;;30.90;31.60;;;;;;5195675;28;20695;-47
2023/05/26 06:49:59;;;;;;;12.83;4.30;;;31.20;31.90;;;;;;5188729;28;20298;-49
2023/05/26 06:52:30;;;;;;;18.13;4.93;;;31.60;30.80;;;;;;5189303;28;20218;-47
2023/05/26 06:55:00;;;;;;;7.97;3.67;;;30.70;31.40;;;;;;5199243;28;20180;-46
2023/05/26 06:57:31;;;;;;;12.03;4.90;;;30.60;31.90;;;;;;5191600;28;20518;-47
2023/05/26 07:00:02;;;;;;;9.33;3.60;;;31.20;31.20;;;;;;5193839;28;20195;-47
2023/05/26 07:02:33;;;;;;;15.20;4.87;;;30.80;31.20;;;;;;5196574;28;20266;-46
2023/05/26 07:05:04;;;;;;;13.70;5.20;;;31.70;31.20;;;;;;5192689;28;20441;-46
2023/05/26 07:07:34;;;;;;;17.10;4.40;;;31.80;30.00;;;;;;5190710;28;20182;-47
2023/05/26 07:10:05;;;;;;;12.03;3.70;;;31.60;30.50;;;;;;5207102;28;20480;-47
2023/05/26 07:12:36;;;;;;;14.57;4.30;;;32.60;30.10;;;;;;5195226;28;20636;-46
2023/05/26 07:15:07;;;;;;;15.17;4.90;;;32.50;29.40;;;;;;5194432;28;20455;-46
2023/05/26 07:17:38;;;;;;;11.13;3.70;;;31.70;29.50;;;;;;5191457;28;20187;-46
2023/05/26 07:20:09;;;;;;;16.03;4.40;;;31.80;29.80;;;;;;5197300;28;20963;-47
2023/05/26 07:22:39;;;;;;;14.53;4.80;;;31.50;29.80;;;;;;5195082;28;20682;-47
2023/05/26 07:25:10;;;;;;;6.63;3.50;;;31.80;29.70;;;;;;5191875;28;20190;-47
2023/05/26 07:27:40;;;;;;;19.13;4.97;;;32.50;29.40;;;;;;5189890;28;20274;-47
2023/05/26 07:30:11;;;;;;;9.37;3.30;;;32.30;29.30;;;;;;5191232;28;20222;-46
2023/05/26 07:32:42;;;;;;;10.57;4.70;;;32.70;28.80;;;;;;5191476;28;20237;-47
2023/05/26 07:35:13;;;;;;;15.37;4.70;;;32.30;28.60;;;;;;5197690;28;20187;-46
2023/05/26 07:37:43;;;;;;;15.03;3.80;;;32.10;28.40;;;;;;5196263;28;20187;-47
2023/05/26 07:40:14;;;;;;;18.20;4.30;;;32.30;28.50;;;;;;5197807;28;20217;-48
2023/05/26 07:42:44;;;;;;;12.50;4.47;;;32.70;28.20;;;;;;5196730;28;20179;-47
2023/05/26 07:45:15;;;;;;;14.53;4.00;;;32.90;28.20;;;;;;5196843;28;20210;-47
2023/05/26 07:47:46;;;;;;;15.07;5.17;;;33.20;28.00;;;;;;5198324;28;20191;-41
2023/05/26 07:50:16;;;;;;;14.73;5.20;;;32.60;28.10;;;;;;5200896;28;20205;-46
2023/05/26 07:52:47;;;;;;;14.03;4.83;;;32.60;28.80;;;;;;5182654;28;20318;-46
2023/05/26 07:55:18;;;;;;;11.70;3.50;;;32.10;27.50;;;;;;5195497;28;20203;-45
2023/05/26 07:57:48;;;;;;;16.90;4.30;;;31.50;28.20;;;;;;5194500;28;20179;-46
2023/05/26 08:00:19;;;;;;;10.17;4.37;;;31.80;28.50;;;;;;5190217;28;20666;-46
2023/05/26 08:02:50;;;;;;;16.20;4.30;;;32.20;28.40;;;;;;5194892;28;20190;-44
2023/05/26 08:05:20;;;;;;;17.20;4.53;;;30.90;28.50;;;;;;5198976;28;20175;-45
2023/05/26 08:07:51;;;;;;;17.50;3.70;;;30.50;29.40;;;;;;5198586;28;20176;-45
2023/05/26 08:10:23;;;;;;;11.37;4.60;;;30.30;29.70;;;;;;5193676;28;20183;-46
2023/05/26 08:12:54;;;;;;;16.40;4.20;;;30.30;29.40;;;;;;5194876;28;20207;-45
2023/05/26 08:15:25;;;;;;;15.27;3.67;;;30.50;29.50;;;;;;5197624;28;20438;-45
2023/05/26 08:17:55;;;;;;;15.27;4.93;;;30.30;29.70;;;;;;5198323;28;20640;-45
2023/05/26 08:20:26;;;;;;;17.73;3.80;;;29.90;29.90;;;;;;5198996;28;20473;-46
2023/05/26 08:22:58;;;;;;;12.67;4.60;;;28.20;30.10;;;;;;5201432;28;20844;-44
2023/05/26 08:25:29;;;;;;;11.10;3.80;;;26.60;32.00;;;;;;5199226;28;20206;-45
2023/05/26 08:27:59;;;;;;;12.77;4.43;;;25.90;33.40;;;;;;5200151;28;20799;-46
2023/05/26 08:30:30;;;;;;;11.53;4.57;;;25.90;33.80;;;;;;5200045;28;20180;-45
2023/05/26 08:33:00;;;;;;;15.20;3.87;;;27.00;32.90;;;;;;5201321;28;20553;-45
2023/05/26 08:35:31;;;;;;;21.63;4.93;;;28.10;31.00;;;;;;5204286;28;20176;-46
2023/05/26 08:38:02;;;;;;;21.73;5.13;;;28.00;31.00;;;;;;5196143;28;20187;-44
2023/05/26 08:40:33;;;;;;;21.47;4.23;;;27.30;32.40;;;;;;5199806;28;20485;-45
2023/05/26 08:43:09;;;;;;;13.13;3.83;;;26.70;32.80;;;;;;5202697;28;20306;-46
2023/05/26 08:45:41;;;;;;;20.03;4.10;;;26.90;33.30;;;;;;5182296;28;20442;-45
2023/05/26 08:48:14;;;;;;;18.47;4.83;;;25.90;34.60;;;;;;5199458;28;20462;-45
2023/05/26 08:50:49;;;;;;;23.90;5.40;;;24.30;36.70;;;;;;5200992;28;20529;-45
2023/05/26 08:53:23;;;;;;;10.93;4.10;;;22.70;38.40;;;;;;5199845;28;20907;-44
2023/05/26 08:55:53;;;;;;;25.63;4.40;;;21.40;41.00;;;;;;5200860;28;20445;-46
2023/05/26 08:58:25;;;;;;;17.90;5.63;;;20.50;43.50;;;;;;5215529;28;20443;-46
2023/05/26 09:00:57;;;;;;;10.07;4.00;;;19.80;44.00;;;;;;5204293;28;20568;-45
2023/05/26 09:03:29;;;;;;;11.03;4.53;;;19.40;44.90;;;;;;5199018;28;20435;-47
2023/05/26 09:05:59;;;;;;;13.50;4.33;;;19.40;45.60;;;;;;5194687;28;20426;-45
2023/05/26 09:08:31;;;;;;;20.13;4.63;;;19.60;45.90;;;;;;5195385;28;20480;-45
2023/05/26 09:11:24;;;;;;;15.87;4.23;;;19.50;44.30;;;;;;5197112;28;20212;-47
2023/05/26 09:13:58;;;;;;;11.77;3.53;;;19.60;45.20;;;;;;5202013;28;20478;-46
2023/05/26 09:16:29;;;;;;;11.67;4.03;;;19.80;44.60;;;;;;5192198;28;20530;-46
2023/05/26 09:19:01;;;;;;;23.97;5.47;;;19.70;44.20;;;;;;5196134;28;20853;-45
2023/05/26 09:21:32;;;;;;;9.93;4.50;;;19.70;45.00;;;;;;5197610;28;20725;-45
2023/05/26 09:24:03;;;;;;;14.60;4.90;;;19.80;44.60;;;;;;5198736;28;20430;-47
2023/05/26 09:26:37;;;;;;;18.47;4.07;;;19.70;44.70;;;;;;5195402;28;20671;-45
2023/05/26 09:29:08;;;;;;;12.60;5.77;;;19.70;43.50;;;;;;5199457;28;20205;-46
2023/05/26 09:31:38;;;;;;;11.10;3.63;;;19.90;43.50;;;;;;5200587;28;20439;-44
2023/05/26 09:34:11;;;;;;;14.23;4.73;;;19.50;43.50;;;;;;5201294;28;20267;-45
2023/05/26 09:36:42;;;;;;;12.57;4.17;;;19.10;43.70;;;;;;5198636;28;20180;-44
2023/05/26 09:39:13;;;;;;;11.20;3.33;;;19.20;43.70;;;;;;5199497;28;20574;-46
2023/05/26 09:41:45;;;;;;;18.60;4.67;;;19.20;42.30;;;;;;5198413;28;20188;-45
2023/05/26 09:44:17;;;;;;;12.33;3.60;;;19.10;43.00;;;;;;5200715;28;20973;-46
2023/05/26 09:46:52;;;;;;;18.60;4.80;;;19.10;44.60;;;;;;5199260;28;20453;-45
2023/05/26 09:49:23;;;;;;;11.70;3.60;;;18.70;44.00;;;;;;5196951;28;21027;-45
2023/05/26 09:51:54;;;;;;;11.60;4.27;;;18.60;44.60;;;;;;5210837;28;20717;-45
2023/05/26 09:54:25;;;;;;;10.67;4.30;;;18.40;44.00;;;;;;5203478;28;20199;-54
2023/05/26 09:57:02;;;;;;;8.33;3.77;;;18.50;43.80;;;;;;5192863;28;20188;-45
2023/05/26 09:59:38;;;;;;;11.50;4.23;;;18.60;44.40;;;;;;5193686;28;20533;-45
2023/05/26 10:02:20;;;;;;;14.03;3.70;;;18.50;44.30;;;;;;5195474;28;21062;-46
2023/05/26 10:04:52;;;;;;;9.50;3.20;;;18.50;44.40;;;;;;5193145;28;20430;-46
2023/05/26 10:07:24;;;;;;;17.97;4.97;;;18.70;44.40;;;;;;5203535;28;20525;-45
2023/05/26 10:09:59;;;;;;;19.13;5.37;;;19.00;43.70;;;;;;5197333;28;20519;-48
2023/05/26 10:12:32;;;;;;;9.57;3.37;;;19.10;43.80;;;;;;5199205;28;20553;-46
2023/05/26 10:15:03;;;;;;;10.87;4.20;;;19.10;43.80;;;;;;5194317;28;20443;-45
2023/05/26 10:17:34;;;;;;;12.93;4.40;;;19.10;43.60;;;;;;5202107;28;20962;-46
2023/05/26 10:20:06;;;;;;;28.93;4.37;;;19.00;42.90;;;;;;5192574;28;20471;-47
2023/05/26 10:22:58;;;;;;;8.93;4.30;;;19.00;43.40;;;;;;5197188;28;20199;-47
2023/05/26 10:25:58;;;;;;;13.87;4.27;;;19.10;43.70;;;;;;5200899;28;20782;-45
2023/05/26 10:28:44;;;;;;;14.03;3.70;;;19.30;43.70;;;;;;5201248;28;20552;-47
2023/05/26 10:31:29;;;;;;;19.70;4.00;;;19.20;43.40;;;;;;5198760;28;20442;-45
2023/05/26 10:34:00;;;;;;;12.60;3.67;;;19.00;42.80;;;;;;5216256;28;20500;-45
2023/05/26 10:36:34;;;;;;;14.23;4.60;;;18.90;40.80;;;;;;5194050;28;20657;-44
2023/05/26 10:39:11;;;;;;;15.20;4.17;;;19.00;42.40;;;;;;5200686;28;20206;-46
2023/05/26 10:41:49;;;;;;;14.37;4.47;;;19.10;43.20;;;;;;5194537;28;20502;-46
2023/05/26 10:44:41;;;;;;;21.00;4.60;;;19.20;43.50;;;;;;5195917;28;20457;-46
2023/05/26 10:47:16;;;;;;;8.37;3.30;;;19.30;43.50;;;;;;5197266;28;20443;-44
2023/05/26 10:49:58;;;;;;;11.67;3.80;;;19.30;43.30;;;;;;5201435;28;20483;-46
2023/05/26 10:52:46;;;;;;;11.03;3.10;;;19.20;41.20;;;;;;5202182;28;20473;-46
2023/05/26 10:55:31;;;;;;;13.60;3.93;;;19.20;41.60;;;;;;5202452;28;20429;-46
2023/05/26 10:58:26;;;;;;;15.47;3.73;;;19.40;42.50;;;;;;5215395;28;20761;-46
2023/05/26 11:01:06;;;;;;;8.40;3.60;;;19.30;42.60;;;;;;5206912;28;20436;-46
2023/05/26 11:03:43;;;;;;;11.30;4.40;;;19.10;43.30;;;;;;5219170;28;20906;-47
2023/05/26 11:06:15;;;;;;;21.60;4.97;;;19.20;43.20;;;;;;5197562;28;20442;-47
2023/05/26 11:08:49;;;;;;;15.07;4.00;;;19.10;43.00;;;;;;5202843;28;20978;-46
2023/05/26 11:11:30;;;;;;;14.57;4.80;;;19.20;43.30;;;;;;5207401;28;20446;-45
2023/05/26 11:14:06;;;;;;;14.50;4.10;;;19.40;42.50;;;;;;5201455;28;20541;-45
2023/05/26 11:16:39;;;;;;;4.47;2.63;;;19.30;41.60;;;;;;5199122;28;20509;-45
2023/05/26 11:19:10;;;;;;;9.37;2.87;;;19.50;40.10;;;;;;5198127;28;20958;-46
2023/05/26 11:21:41;;;;;;;11.67;3.00;;;19.60;37.80;;;;;;5198721;28;20457;-46
2023/05/26 11:24:12;;;;;;;8.87;3.27;;;19.70;36.90;;;;;;5203454;28;20190;-46
2023/05/26 11:26:43;;;;;;;9.00;3.50;;;19.80;37.20;;;;;;5199871;28;20226;-46
2023/05/26 11:29:13;;;;;;;7.07;2.93;;;19.70;36.70;;;;;;5195494;28;20644;-45
2023/05/26 11:31:48;;;;;;;13.50;3.70;;;19.60;33.90;;;;;;5199574;28;20246;-46
2023/05/26 11:34:19;;;;;;;8.43;3.40;;;19.30;33.40;;;;;;5213311;28;20219;-45
2023/05/26 11:36:54;;;;;;;13.73;3.40;;;19.30;33.90;;;;;;5192918;28;20481;-44
2023/05/26 11:39:31;;;;;;;2.40;2.07;;;19.40;33.60;;;;;;5198470;28;20229;-46
2023/05/26 11:42:12;;;;;;;3.37;2.43;;;19.40;32.70;;;;;;5204540;28;20441;-44
2023/05/26 11:44:44;;;;;;;9.63;2.90;;;19.20;32.10;;;;;;5201829;28;20441;-46
2023/05/26 11:47:15;;;;;;;6.90;3.00;;;19.20;32.60;;;;;;5205052;28;20438;-46
2023/05/26 11:49:48;;;;;;;26.53;6.13;;;19.20;32.40;;;;;;5201159;28;20475;-45
2023/05/26 11:52:22;;;;;;;10.40;3.67;;;19.40;32.70;;;;;;5196510;28;20441;-45
2023/05/26 11:54:53;;;;;;;4.43;2.60;;;19.60;33.00;;;;;;5197025;28;20485;-46
2023/05/26 11:57:30;;;;;;;6.73;3.00;;;19.80;32.90;;;;;;5198546;28;20843;-46
2023/05/26 12:00:09;;;;;;;3.80;2.43;;;19.80;31.50;;;;;;5203240;28;20234;-46
2023/05/26 12:02:40;;;;;;;9.03;3.10;;;19.80;31.90;;;;;;5199954;28;20706;-47
2023/05/26 12:05:29;;;;;;;7.37;3.20;;;19.70;31.70;;;;;;5194059;28;20481;-48
2023/05/26 12:08:10;;;;;;;6.70;3.10;;;19.40;31.20;;;;;;5200935;28;20457;-46
2023/05/26 12:10:41;;;;;;;15.27;3.60;;;19.30;31.40;;;;;;5202673;28;20461;-45
2023/05/26 12:13:12;;;;;;;14.80;3.37;;;19.30;32.60;;;;;;5202890;28;20463;-45
2023/05/26 12:15:51;;;;;;;8.20;2.80;;;19.30;33.20;;;;;;5200589;28;20488;-46
2023/05/26 12:18:22;;;;;;;2.90;2.43;;;19.40;33.30;;;;;;5197600;28;20241;-46
2023/05/26 12:20:53;;;;;;;5.00;2.90;;;19.40;32.80;;;;;;5193871;28;20439;-46
2023/05/26 12:23:24;;;;;;;8.20;2.77;;;19.50;30.60;;;;;;5197002;28;20885;-44
2023/05/26 12:25:55;;;;;;;7.80;2.80;;;19.60;30.20;;;;;;5204579;28;20203;-45
2023/05/26 12:28:25;;;;;;;5.23;2.30;;;19.60;30.60;;;;;;5197851;28;20465;-46
2023/05/26 12:30:56;;;;;;;5.90;2.90;;;19.60;30.70;;;;;;5193993;28;20739;-45
2023/05/26 12:33:27;;;;;;;9.30;3.00;;;19.60;30.90;;;;;;5199384;28;20570;-45
2023/05/26 12:35:58;;;;;;;6.23;2.97;;;19.50;31.30;;;;;;5198370;28;20236;-45
2023/05/26 12:38:40;;;;;;;5.10;2.33;;;19.50;31.60;;;;;;5199730;28;20450;-45
2023/05/26 12:41:10;;;;;;;5.10;2.37;;;19.50;30.50;;;;;;5199802;28;20246;-45
2023/05/26 12:43:41;;;;;;;6.10;2.17;;;19.40;30.20;;;;;;5199079;28;20445;-47
2023/05/26 12:46:12;;;;;;;10.43;3.07;;;19.40;31.00;;;;;;5200950;28;20226;-46
2023/05/26 12:48:43;;;;;;;5.90;2.50;;;19.40;30.70;;;;;;5198214;28;20216;-45
2023/05/26 12:51:16;;;;;;;7.67;2.30;;;19.40;31.00;;;;;;5199984;28;20691;-45
2023/05/26 12:53:46;;;;;;;6.03;2.53;;;19.50;31.30;;;;;;5221106;28;20224;-45
2023/05/26 12:56:17;;;;;;;5.40;2.17;;;19.60;31.30;;;;;;5205113;28;20533;-46
2023/05/26 12:58:48;;;;;;;9.30;2.67;;;19.60;30.30;;;;;;5203513;28;20211;-44
2023/05/26 13:01:19;;;;;;;5.00;1.93;;;19.70;30.40;;;;;;5199316;28;20489;-47
2023/05/26 13:03:50;;;;;;;13.03;2.80;;;19.80;29.80;;;;;;5209034;28;20203;-45
2023/05/26 13:06:22;;;;;;;4.77;2.93;;;19.70;29.00;;;;;;5200811;28;20450;-44